createdAt,value
2019-04-14T00:02:18.472Z,20.70
2019-04-14T00:04:49.030Z,21.27
2019-04-14T00:07:18.817Z,24.83
2019-04-14T00:09:49.751Z,21.60
2019-04-14T00:12:20.760Z,22.50
2019-04-14T00:14:51.732Z,20.10
2019-04-14T00:17:21.960Z,21.87
2019-04-14T00:19:52.377Z,17.53
2019-04-14T00:22:22.703Z,23.87
2019-04-14T00:24:53.226Z,19.40
2019-04-14T00:27:23.630Z,19.40
2019-04-14T00:29:54.538Z,20.83
2019-04-14T00:32:24.818Z,20.87
2019-04-14T00:35:14.604Z,21.23
2019-04-14T00:38:02.441Z,22.00
2019-04-14T00:40:36.833Z,21.27
2019-04-14T00:43:20.052Z,23.00
2019-04-14T00:46:00.940Z,24.57
2019-04-14T00:48:32.026Z,23.53
2019-04-14T00:51:02.761Z,18.63
2019-04-14T00:53:33.810Z,22.07
2019-04-14T00:56:04.056Z,23.57
2019-04-14T00:58:34.958Z,18.87
2019-04-14T01:01:06.841Z,20.67
2019-04-14T01:03:37.332Z,19.77
2019-04-14T01:06:07.687Z,18.50
2019-04-14T01:08:38.103Z,20.30
2019-04-14T01:11:07.914Z,22.47
2019-04-14T01:13:37.594Z,21.43
2019-04-14T01:16:13.922Z,19.83
2019-04-14T01:18:38.722Z,18.47
2019-04-14T01:21:08.918Z,20.90
2019-04-14T01:23:39.200Z,20.13
2019-04-14T01:26:09.362Z,23.93
2019-04-14T01:28:39.696Z,17.33
2019-04-14T01:31:09.850Z,17.60
2019-04-14T01:33:40.155Z,17.53
2019-04-14T01:36:10.549Z,22.33
2019-04-14T01:38:40.672Z,19.97
2019-04-14T01:41:10.677Z,26.57
2019-04-14T01:43:40.567Z,21.17
2019-04-14T01:46:16.587Z,25.83
2019-04-14T01:48:41.869Z,21.07
2019-04-14T01:51:40.043Z,20.03
2019-04-14T01:54:17.695Z,22.87
2019-04-14T01:57:02.417Z,19.73
2019-04-14T01:59:32.667Z,20.53
2019-04-14T02:02:03.718Z,19.23
2019-04-14T02:04:33.450Z,17.33
2019-04-14T02:07:03.832Z,14.60
2019-04-14T02:09:33.748Z,16.93
2019-04-14T02:12:03.924Z,17.13
2019-04-14T02:14:34.403Z,20.43
2019-04-14T02:17:05.983Z,17.20
2019-04-14T02:19:37.054Z,20.37
2019-04-14T02:22:07.374Z,20.57
2019-04-14T02:24:37.481Z,14.93
2019-04-14T02:27:07.717Z,15.90
2019-04-14T02:29:38.373Z,24.27
2019-04-14T02:32:32.570Z,13.63
2019-04-14T02:35:21.074Z,15.97
2019-04-14T02:37:48.489Z,13.73
2019-04-14T02:40:15.990Z,11.77
2019-04-14T02:45:19.464Z,14.10
2019-04-14T02:47:53.955Z,14.50
2019-04-14T02:50:17.893Z,14.27
2019-04-14T02:55:38.362Z,12.80
2019-04-14T02:57:47.562Z,16.40
2019-04-14T03:02:47.529Z,17.17
2019-04-14T03:05:19.626Z,15.07
2019-04-14T03:07:54.233Z,16.60
2019-04-14T03:10:34.245Z,10.97
2019-04-14T03:13:09.440Z,14.40
2019-04-14T03:15:33.300Z,16.63
2019-04-14T03:18:31.795Z,14.93
2019-04-14T03:21:24.858Z,20.10
2019-04-14T03:24:06.708Z,15.27
2019-04-14T03:26:48.381Z,29.90
2019-04-14T03:29:27.158Z,19.27
2019-04-14T03:32:11.047Z,19.50
2019-04-14T03:39:34.819Z,17.27
2019-04-14T03:42:01.480Z,19.33
2019-04-14T03:44:34.809Z,18.07
2019-04-14T03:47:11.014Z,21.17
2019-04-14T03:49:40.752Z,18.47
2019-04-14T03:52:02.467Z,22.17
2019-04-14T03:54:33.218Z,20.30
2019-04-14T03:56:53.556Z,18.63
2019-04-14T03:59:24.162Z,17.57
2019-04-14T04:01:54.440Z,19.47
2019-04-14T04:04:25.032Z,20.57
2019-04-14T04:06:55.377Z,20.23
2019-04-14T04:09:41.346Z,19.33
2019-04-14T04:12:12.009Z,18.33
2019-04-14T04:14:41.958Z,24.17
2019-04-14T04:17:31.806Z,20.30
2019-04-14T04:20:18.171Z,19.80
2019-04-14T04:23:14.182Z,17.07
2019-04-14T04:25:48.653Z,21.07
2019-04-14T04:28:38.485Z,24.83
2019-04-14T04:31:26.443Z,23.73
2019-04-14T04:34:03.302Z,23.47
2019-04-14T04:36:37.795Z,18.03
2019-04-14T04:39:12.875Z,22.00
2019-04-14T04:41:42.894Z,20.60
2019-04-14T04:44:13.648Z,23.37
2019-04-14T04:46:44.453Z,17.30
2019-04-14T04:49:20.705Z,21.57
2019-04-14T04:51:46.522Z,24.87
2019-04-14T04:54:16.838Z,23.50
2019-04-14T04:56:47.269Z,24.13
2019-04-14T04:59:17.263Z,20.90
2019-04-14T05:01:47.362Z,25.43
2019-04-14T05:04:18.163Z,23.23
2019-04-14T05:07:14.380Z,23.17
2019-04-14T05:09:57.858Z,21.23
2019-04-14T05:12:45.686Z,26.63
2019-04-14T05:15:40.721Z,26.50
2019-04-14T05:18:16.218Z,24.90
2019-04-14T05:20:46.442Z,26.63
2019-04-14T05:23:16.977Z,21.57
2019-04-14T05:25:47.415Z,26.90
2019-04-14T05:28:17.852Z,28.00
2019-04-14T05:30:48.322Z,30.47
2019-04-14T05:33:18.579Z,27.27
2019-04-14T05:35:48.867Z,28.23
2019-04-14T05:38:19.073Z,36.80
2019-04-14T05:40:49.656Z,25.20
2019-04-14T05:43:30.312Z,33.23
2019-04-14T05:45:52.224Z,29.63
2019-04-14T05:48:23.181Z,27.40
2019-04-14T05:50:53.385Z,30.00
2019-04-14T05:53:24.046Z,24.03
2019-04-14T05:55:54.623Z,30.63
2019-04-14T05:58:25.352Z,28.00
2019-04-14T06:00:55.823Z,23.67
2019-04-14T06:03:25.787Z,26.13
2019-04-14T06:05:55.509Z,24.03
2019-04-14T06:08:25.242Z,25.43
2019-04-14T06:10:54.918Z,26.00
2019-04-14T06:13:24.625Z,26.27
2019-04-14T06:15:54.313Z,30.93
2019-04-14T06:18:24.009Z,30.73
2019-04-14T06:20:53.700Z,25.97
2019-04-14T06:23:23.390Z,23.33
2019-04-14T06:25:53.073Z,30.27
2019-04-14T06:28:22.816Z,24.83
2019-04-14T06:31:15.114Z,28.57
2019-04-14T06:34:01.683Z,23.60
2019-04-14T06:36:48.785Z,33.23
2019-04-14T06:39:29.898Z,22.60
2019-04-14T06:41:59.707Z,25.90
2019-04-14T06:44:29.464Z,24.63
2019-04-14T06:46:59.249Z,27.13
2019-04-14T06:49:28.959Z,20.27
2019-04-14T06:51:58.766Z,24.83
2019-04-14T06:54:28.477Z,23.47
2019-04-14T06:56:58.267Z,23.77
2019-04-14T06:59:27.961Z,18.80
2019-04-14T07:01:59.270Z,21.00
2019-04-14T07:04:29.214Z,18.57
2019-04-14T07:06:58.939Z,18.03
2019-04-14T07:09:28.714Z,22.47
2019-04-14T07:11:58.445Z,22.73
2019-04-14T07:14:31.728Z,21.37
2019-04-14T07:16:59.622Z,21.23
2019-04-14T07:19:29.287Z,21.63
2019-04-14T07:21:59.082Z,20.00
2019-04-14T07:24:28.774Z,24.90
2019-04-14T07:26:58.628Z,23.83
2019-04-14T07:29:31.369Z,28.40
2019-04-14T07:32:13.500Z,25.60
2019-04-14T07:35:10.470Z,21.47
2019-04-14T07:37:49.365Z,23.43
2019-04-14T07:40:24.985Z,20.07
2019-04-14T07:43:04.626Z,19.00
2019-04-14T07:45:48.162Z,16.87
2019-04-14T07:48:22.572Z,24.07
2019-04-14T07:51:10.098Z,18.37
2019-04-14T07:53:46.682Z,21.23
2019-04-14T07:56:34.522Z,17.57
2019-04-14T07:59:10.987Z,18.70
2019-04-14T08:01:53.717Z,24.03
2019-04-14T08:04:27.212Z,20.53
2019-04-14T08:06:58.463Z,20.43
2019-04-14T08:09:28.237Z,24.33
2019-04-14T08:11:58.170Z,19.73
2019-04-14T08:14:28.250Z,21.57
2019-04-14T08:16:58.192Z,24.87
2019-04-14T08:19:28.224Z,14.47
2019-04-14T08:21:58.421Z,18.87
2019-04-14T08:24:28.839Z,16.93
2019-04-14T08:26:58.791Z,24.67
2019-04-14T08:29:28.800Z,22.27
2019-04-14T08:31:59.160Z,18.17
2019-04-14T08:34:30.451Z,20.67
2019-04-14T08:37:03.512Z,19.00
2019-04-14T08:39:33.552Z,16.07
2019-04-14T08:42:15.735Z,22.83
2019-04-14T08:44:47.824Z,20.03
2019-04-14T08:47:29.602Z,17.10
2019-04-14T08:50:08.225Z,18.43
2019-04-14T08:52:45.541Z,18.60
2019-04-14T08:55:27.007Z,17.60
2019-04-14T08:58:05.268Z,14.20
2019-04-14T09:00:57.284Z,27.87
2019-04-14T09:03:58.430Z,15.97
2019-04-14T09:06:35.357Z,20.23
2019-04-14T09:09:24.893Z,17.93
2019-04-14T09:11:58.263Z,17.67
2019-04-14T09:14:28.059Z,17.30
2019-04-14T09:16:57.772Z,18.87
2019-04-14T09:19:27.519Z,17.73
2019-04-14T09:21:57.239Z,16.63
2019-04-14T09:24:26.990Z,17.07
2019-04-14T09:26:56.715Z,20.30
2019-04-14T09:29:26.390Z,14.83
2019-04-14T09:31:56.126Z,17.67
2019-04-14T09:34:25.846Z,21.83
2019-04-14T09:36:55.519Z,16.57
2019-04-14T09:39:25.230Z,17.70
2019-04-14T09:41:55.002Z,16.83
2019-04-14T09:44:24.710Z,20.70
2019-04-14T09:46:54.450Z,15.63
2019-04-14T09:49:24.234Z,19.00
2019-04-14T09:51:53.942Z,14.67
2019-04-14T09:54:23.618Z,20.27
2019-04-14T09:56:53.375Z,18.10
2019-04-14T09:59:23.630Z,18.07
2019-04-14T10:01:53.446Z,23.53
2019-04-14T10:04:23.150Z,20.80
2019-04-14T10:06:52.972Z,17.97
2019-04-14T10:09:22.775Z,22.80
2019-04-14T10:11:56.166Z,14.87
2019-04-14T10:14:24.082Z,17.33
2019-04-14T10:16:53.761Z,18.90
2019-04-14T10:19:23.691Z,17.40
2019-04-14T10:21:53.365Z,19.33
2019-04-14T10:24:23.209Z,22.37
2019-04-14T10:26:52.962Z,16.63
2019-04-14T10:29:22.679Z,20.77
2019-04-14T10:31:52.478Z,17.17
2019-04-14T10:34:22.196Z,21.33
2019-04-14T10:36:53.789Z,15.53
2019-04-14T10:39:23.586Z,18.20
2019-04-14T10:41:53.291Z,22.40
2019-04-14T10:44:22.975Z,20.07
2019-04-14T10:46:52.694Z,18.33
2019-04-14T10:49:22.489Z,18.70
2019-04-14T10:51:52.305Z,18.40
2019-04-14T10:54:22.026Z,16.03
2019-04-14T10:56:51.691Z,13.63
2019-04-14T10:59:21.394Z,16.50
2019-04-14T11:01:51.089Z,19.73
2019-04-14T11:04:20.791Z,13.57
2019-04-14T11:07:15.692Z,18.50
2019-04-14T11:09:45.454Z,14.37
2019-04-14T11:12:15.150Z,13.10
2019-04-14T11:14:44.821Z,15.33
2019-04-14T11:17:14.622Z,16.60
2019-04-14T11:19:44.298Z,15.97
2019-04-14T11:22:13.982Z,12.57
2019-04-14T11:24:43.767Z,12.97
2019-04-14T11:27:13.452Z,15.43
2019-04-14T11:29:43.139Z,14.57
2019-04-14T11:32:47.277Z,16.20
2019-04-14T11:35:21.555Z,15.63
2019-04-14T11:38:01.943Z,11.87
2019-04-14T11:40:35.457Z,16.60
2019-04-14T11:43:05.274Z,14.87
2019-04-14T11:45:35.065Z,15.83
2019-04-14T11:48:04.865Z,11.23
2019-04-14T11:50:34.631Z,17.53
2019-04-14T11:53:04.546Z,17.00
2019-04-14T11:55:34.362Z,16.07
2019-04-14T11:58:05.058Z,11.00
2019-04-14T12:01:05.706Z,14.97
2019-04-14T12:03:53.550Z,12.10
2019-04-14T12:06:30.896Z,19.67
2019-04-14T12:09:23.178Z,15.93
2019-04-14T12:11:52.864Z,14.07
2019-04-14T12:14:22.652Z,12.67
2019-04-14T12:16:52.351Z,16.77
2019-04-14T12:19:22.033Z,15.07
2019-04-14T12:21:51.958Z,14.40
2019-04-14T12:24:21.728Z,18.27
2019-04-14T12:26:51.608Z,12.57
2019-04-14T12:29:21.477Z,17.67
2019-04-14T12:31:51.402Z,14.70
2019-04-14T12:34:21.431Z,12.73
2019-04-14T12:36:51.122Z,10.53
2019-04-14T12:39:23.589Z,17.00
2019-04-14T12:41:59.614Z,11.87
2019-04-14T12:44:47.115Z,13.67
2019-04-14T12:47:39.866Z,16.10
2019-04-14T12:50:15.736Z,14.73
2019-04-14T12:52:45.538Z,13.90
2019-04-14T12:55:15.493Z,17.43
2019-04-14T12:57:49.603Z,15.50
2019-04-14T13:00:25.840Z,13.13
2019-04-14T13:02:55.570Z,12.33
2019-04-14T13:05:25.285Z,13.23
2019-04-14T13:07:54.998Z,15.53
2019-04-14T13:10:24.778Z,16.60
2019-04-14T13:12:54.502Z,15.87
2019-04-14T13:15:24.177Z,11.87
2019-04-14T13:17:53.890Z,14.20
2019-04-14T13:20:24.713Z,13.40
2019-04-14T13:22:54.488Z,12.30
2019-04-14T13:25:24.246Z,16.33
2019-04-14T13:27:54.151Z,15.90
2019-04-14T13:30:27.949Z,16.53
2019-04-14T13:32:57.934Z,14.33
2019-04-14T13:35:27.722Z,12.33
2019-04-14T13:37:57.414Z,12.57
2019-04-14T13:40:27.121Z,17.77
2019-04-14T13:42:56.803Z,16.33
2019-04-14T13:45:26.570Z,14.57
2019-04-14T13:47:56.271Z,14.43
2019-04-14T13:50:25.952Z,13.63
2019-04-14T13:52:55.675Z,14.80
2019-04-14T13:55:25.560Z,13.70
2019-04-14T13:57:55.430Z,15.20
2019-04-14T14:00:25.656Z,11.77
2019-04-14T14:02:55.367Z,12.83
2019-04-14T14:05:26.206Z,15.70
2019-04-14T14:07:55.893Z,14.47
2019-04-14T14:10:25.615Z,20.03
2019-04-14T14:13:17.451Z,18.07
2019-04-14T14:16:18.643Z,13.20
2019-04-14T14:19:13.330Z,12.23
2019-04-14T14:21:53.486Z,13.10
2019-04-14T14:25:00.786Z,14.03
2019-04-14T14:27:30.659Z,15.50
2019-04-14T14:30:00.370Z,15.10
2019-04-14T14:32:35.058Z,15.70
2019-04-14T14:35:05.777Z,19.50
2019-04-14T14:37:36.529Z,14.33
2019-04-14T14:40:07.368Z,12.07
2019-04-14T14:42:37.176Z,15.47
2019-04-14T14:45:31.706Z,13.10
2019-04-14T14:48:16.450Z,13.83
2019-04-14T14:50:52.806Z,11.87
2019-04-14T14:53:22.593Z,12.97
2019-04-14T14:55:52.439Z,18.70
2019-04-14T14:58:22.214Z,12.67
2019-04-14T15:00:52.271Z,12.70
2019-04-14T15:03:22.206Z,11.00
2019-04-14T15:05:52.053Z,16.10
2019-04-14T15:08:22.098Z,13.70
2019-04-14T15:10:51.943Z,10.97
2019-04-14T15:13:21.690Z,16.43
2019-04-14T15:15:51.506Z,13.20
2019-04-14T15:18:21.202Z,11.67
2019-04-14T15:20:50.938Z,11.83
2019-04-14T15:23:25.062Z,12.10
2019-04-14T15:25:52.159Z,12.03
2019-04-14T15:28:21.842Z,11.97
2019-04-14T15:30:51.622Z,11.40
2019-04-14T15:33:21.406Z,11.27
2019-04-14T15:35:51.202Z,11.20
2019-04-14T15:38:21.030Z,9.93
2019-04-14T15:40:50.818Z,11.90
2019-04-14T15:43:20.502Z,12.17
2019-04-14T15:45:50.359Z,11.63
2019-04-14T15:48:20.060Z,11.77
2019-04-14T15:50:49.844Z,9.57
2019-04-14T15:53:20.731Z,11.80
2019-04-14T15:55:50.669Z,12.70
2019-04-14T15:58:29.102Z,10.73
2019-04-14T16:01:30.226Z,15.00
2019-04-14T16:04:12.449Z,9.30
2019-04-14T16:07:10.316Z,9.33
2019-04-14T16:09:51.998Z,12.57
2019-04-14T16:12:28.019Z,12.83
2019-04-14T16:15:19.859Z,12.60
2019-04-14T16:17:53.960Z,12.23
2019-04-14T16:20:27.090Z,11.40
2019-04-14T16:22:56.800Z,12.67
2019-04-14T16:25:39.562Z,13.27
2019-04-14T16:28:15.290Z,13.17
2019-04-14T16:31:05.746Z,10.67
2019-04-14T16:33:54.527Z,11.33
2019-04-14T16:36:24.230Z,13.53
2019-04-14T16:38:54.060Z,12.17
2019-04-14T16:41:23.766Z,14.30
2019-04-14T16:43:53.513Z,14.27
2019-04-14T16:46:23.282Z,10.97
2019-04-14T16:48:54.002Z,14.47
2019-04-14T16:51:28.670Z,11.57
2019-04-14T16:54:03.265Z,11.50
2019-04-14T16:56:48.312Z,10.07
2019-04-14T16:59:18.014Z,11.97
2019-04-14T17:01:48.854Z,16.77
2019-04-14T17:04:18.549Z,13.17
2019-04-14T17:06:48.234Z,10.43
2019-04-14T17:09:18.120Z,10.30
2019-04-14T17:11:47.882Z,13.87
2019-04-14T17:14:23.016Z,12.73
2019-04-14T17:17:14.590Z,14.13
2019-04-14T17:20:15.243Z,19.40
2019-04-14T17:23:02.594Z,9.60
2019-04-14T17:25:53.582Z,12.00
2019-04-14T17:28:43.015Z,13.30
2019-04-14T17:31:19.174Z,13.30
2019-04-14T17:34:07.963Z,11.73
2019-04-14T17:36:56.782Z,14.60
2019-04-14T17:39:31.898Z,10.17
2019-04-14T17:42:30.339Z,11.80
2019-04-14T17:45:13.727Z,19.43
2019-04-14T17:48:02.483Z,13.80
2019-04-14T17:50:46.726Z,13.50
2019-04-14T17:53:37.358Z,18.70
2019-04-14T17:56:17.730Z,11.33
2019-04-14T17:59:10.417Z,12.23
2019-04-14T18:02:05.363Z,16.83
2019-04-14T18:04:53.394Z,15.50
2019-04-14T18:07:27.486Z,16.17
2019-04-14T18:10:31.500Z,17.57
2019-04-14T18:13:18.975Z,18.10
2019-04-14T18:16:07.814Z,13.57
2019-04-14T18:18:57.195Z,13.67
2019-04-14T18:21:26.947Z,16.57
2019-04-14T18:23:57.906Z,13.80
2019-04-14T18:26:27.639Z,18.57
2019-04-14T18:29:15.424Z,11.47
2019-04-14T18:31:57.459Z,11.60
2019-04-14T18:34:36.254Z,15.87
2019-04-14T18:37:43.194Z,16.37
2019-04-14T18:40:17.138Z,16.48
2019-04-14T18:43:07.406Z,13.07
2019-04-14T18:45:59.835Z,12.57
2019-04-14T18:48:35.848Z,15.47
2019-04-14T18:51:23.770Z,15.07
2019-04-14T18:53:56.230Z,22.63
2019-04-14T18:56:54.154Z,17.17
2019-04-14T18:59:49.013Z,15.17
2019-04-14T19:02:19.981Z,15.20
2019-04-14T19:04:49.649Z,18.30
2019-04-14T19:07:19.434Z,16.33
2019-04-14T19:09:49.178Z,18.00
2019-04-14T19:12:37.040Z,13.63
2019-04-14T19:15:29.005Z,14.00
2019-04-14T19:18:07.270Z,18.80
2019-04-14T19:20:38.301Z,16.03
2019-04-14T19:23:08.173Z,17.57
2019-04-14T19:25:37.867Z,25.03
2019-04-14T19:28:07.561Z,27.27
2019-04-14T19:30:37.414Z,22.80
2019-04-14T19:33:07.082Z,17.60
2019-04-14T19:35:36.798Z,18.50
2019-04-14T19:38:06.634Z,16.63
2019-04-14T19:40:37.377Z,17.03
2019-04-14T19:43:07.050Z,14.30
2019-04-14T19:45:36.757Z,20.47
2019-04-14T19:48:06.506Z,14.70
2019-04-14T19:50:36.285Z,17.57
2019-04-14T19:53:06.095Z,14.63
2019-04-14T19:55:37.235Z,15.87
2019-04-14T19:58:07.322Z,13.33
2019-04-14T20:00:37.083Z,13.63
2019-04-14T20:03:06.784Z,12.90
2019-04-14T20:05:36.672Z,16.00
2019-04-14T20:08:06.423Z,17.10
2019-04-14T20:10:36.119Z,14.33
2019-04-14T20:13:05.938Z,19.63
2019-04-14T20:15:43.122Z,14.80
2019-04-14T20:18:23.422Z,15.70
2019-04-14T20:21:11.071Z,18.90
2019-04-14T20:23:58.958Z,16.20
2019-04-14T20:26:50.863Z,16.23
2019-04-14T20:29:27.202Z,19.50
2019-04-14T20:32:02.068Z,13.77
2019-04-14T20:34:31.845Z,19.40
2019-04-14T20:37:01.809Z,19.53
2019-04-14T20:39:32.022Z,19.60
2019-04-14T20:42:01.718Z,14.23
2019-04-14T20:44:31.394Z,15.40
2019-04-14T20:47:01.165Z,12.80
2019-04-14T20:49:30.914Z,13.50
2019-04-14T20:52:00.594Z,14.17
2019-04-14T20:54:30.381Z,14.57
2019-04-14T20:57:00.202Z,15.27
2019-04-14T20:59:29.967Z,16.87
2019-04-14T21:02:07.738Z,16.70
2019-04-14T21:05:08.910Z,17.53
2019-04-14T21:08:00.706Z,16.37
2019-04-14T21:10:35.280Z,17.43
2019-04-14T21:13:14.546Z,17.43
2019-04-14T21:16:12.167Z,15.23
2019-04-14T21:18:37.862Z,18.30
2019-04-14T21:21:19.043Z,16.27
2019-04-14T21:23:52.487Z,15.90
2019-04-14T21:26:47.394Z,18.60
2019-04-14T21:29:39.203Z,20.20
2019-04-14T21:32:21.650Z,15.40
2019-04-14T21:34:59.347Z,15.87
2019-04-14T21:37:40.343Z,13.50
2019-04-14T21:40:35.018Z,21.20
2019-04-14T21:43:04.805Z,16.53
2019-04-14T21:45:34.534Z,17.20
2019-04-14T21:48:04.342Z,18.27
2019-04-14T21:50:34.022Z,18.87
2019-04-14T21:53:03.893Z,19.33
2019-04-14T21:55:33.589Z,21.83
2019-04-14T21:58:10.910Z,13.37
2019-04-14T22:01:41.066Z,15.77
2019-04-14T22:04:30.107Z,17.53
2019-04-14T22:07:09.126Z,20.60
2019-04-14T22:09:39.161Z,15.30
2019-04-14T22:12:09.339Z,19.13
2019-04-14T22:14:40.094Z,20.63
2019-04-14T22:17:09.940Z,16.40
2019-04-14T22:19:39.616Z,19.67
2019-04-14T22:22:09.346Z,23.17
2019-04-14T22:24:39.025Z,15.67
2019-04-14T22:27:08.970Z,14.60
2019-04-14T22:29:38.738Z,20.53
2019-04-14T22:32:08.550Z,19.67
2019-04-14T22:34:39.299Z,20.67
2019-04-14T22:37:09.152Z,16.47
2019-04-14T22:39:39.326Z,15.90
2019-04-14T22:42:09.474Z,20.13
2019-04-14T22:44:39.154Z,17.97
2019-04-14T22:47:09.105Z,17.87
2019-04-14T22:49:50.582Z,16.53
2019-04-14T22:52:20.355Z,18.37
2019-04-14T22:54:50.067Z,23.93
2019-04-14T22:57:19.843Z,18.80
2019-04-14T22:59:49.893Z,19.57
2019-04-14T23:02:32.994Z,17.83
2019-04-14T23:05:12.339Z,15.67
2019-04-14T23:08:03.915Z,18.87
2019-04-14T23:10:59.177Z,19.60
2019-04-14T23:13:53.839Z,22.00
2019-04-14T23:16:37.539Z,25.17
2019-04-14T23:19:11.804Z,18.43
2019-04-14T23:21:46.003Z,18.80
2019-04-14T23:24:24.631Z,17.53
2019-04-14T23:26:54.311Z,19.27
2019-04-14T23:29:23.999Z,17.77
2019-04-14T23:31:53.767Z,20.00
2019-04-14T23:34:23.462Z,16.63
2019-04-14T23:36:53.219Z,19.50
2019-04-14T23:39:22.893Z,20.23
2019-04-14T23:41:52.570Z,22.50
2019-04-14T23:44:22.337Z,20.97
2019-04-14T23:46:52.171Z,21.13
2019-04-14T23:49:21.910Z,18.70
2019-04-14T23:51:51.698Z,23.57
2019-04-14T23:54:21.390Z,28.07
2019-04-14T23:56:51.122Z,19.57
2019-04-14T23:59:20.822Z,17.33
